Time;durP1;ratioP1;P1;durP2;ratioP2;P2;SDS_P1;SDS_P2;PMS_P1;PMS_P2;Temp;Humidity;BMP_temperature;BMP_pressure;BME280_temperature;BME280_humidity;BME280_pressure;Samples;Min_cycle;Max_cycle;Signal;HPM_P1;HPM_P2
2022/05/23 00:02:03;;;;;;;10.55;10.25;;;16.90;99.90;;;;;;5158937;27;20235;-83
2022/05/23 00:04:32;;;;;;;10.48;10.18;;;16.90;99.90;;;;;;5157281;27;20319;-83
2022/05/23 00:07:02;;;;;;;10.43;10.13;;;17.00;99.90;;;;;;5149093;27;20235;-84
2022/05/23 00:09:31;;;;;;;10.60;10.30;;;17.00;99.90;;;;;;5146642;27;20292;-84
2022/05/23 00:12:11;;;;;;;10.43;10.13;;;17.10;99.90;;;;;;5145410;27;20243;-84
2022/05/23 00:14:41;;;;;;;10.70;10.40;;;17.10;99.90;;;;;;5146428;27;20274;-83
2022/05/23 00:17:10;;;;;;;10.77;10.48;;;17.10;99.90;;;;;;5148562;27;20262;-84
2022/05/23 00:19:39;;;;;;;10.60;10.30;;;17.10;99.90;;;;;;5146333;27;20234;-84
2022/05/23 00:22:09;;;;;;;10.60;10.30;;;17.10;99.90;;;;;;5147289;27;20266;-83
2022/05/23 00:24:41;;;;;;;10.68;10.38;;;17.10;99.90;;;;;;5146249;27;20258;-83
2022/05/23 00:27:18;;;;;;;10.70;10.40;;;17.00;99.90;;;;;;5145461;27;20228;-84
2022/05/23 00:29:46;;;;;;;10.70;10.40;;;16.90;99.90;;;;;;5146134;27;20220;-84
2022/05/23 00:37:44;;;;;;;10.30;10.00;;;16.90;99.90;;;;;;5145447;27;20216;-84
2022/05/23 00:40:28;;;;;;;10.55;10.25;;;17.00;99.90;;;;;;5145132;27;20248;-84
2022/05/23 00:43:14;;;;;;;10.65;10.35;;;17.00;99.90;;;;;;5145218;27;20265;-84
2022/05/23 00:45:44;;;;;;;10.48;10.18;;;16.90;99.90;;;;;;5145080;27;20369;-84
2022/05/23 00:48:14;;;;;;;10.43;10.13;;;16.90;99.90;;;;;;5144821;27;20289;-84
2022/05/23 00:50:45;;;;;;;10.63;10.32;;;16.90;99.90;;;;;;5145252;27;20254;-84
2022/05/23 00:53:15;;;;;;;10.20;9.90;;;16.90;99.90;;;;;;5153985;27;20232;-84
2022/05/23 00:55:52;;;;;;;10.43;10.13;;;16.90;99.90;;;;;;5154240;27;20248;-85
2022/05/23 00:58:29;;;;;;;10.35;10.05;;;16.80;99.90;;;;;;5148705;27;20259;-84
2022/05/23 01:01:07;;;;;;;10.40;10.10;;;16.70;99.90;;;;;;5145737;27;20242;-84
2022/05/23 01:03:37;;;;;;;10.20;9.90;;;16.70;99.90;;;;;;5146121;27;20256;-83
2022/05/23 01:06:06;;;;;;;10.40;10.10;;;16.60;99.90;;;;;;5145363;27;20224;-83
2022/05/23 01:08:37;;;;;;;10.40;10.10;;;16.60;99.90;;;;;;5145153;27;20236;-84
2022/05/23 01:11:05;;;;;;;10.30;10.00;;;16.50;99.90;;;;;;5145523;27;20289;-84
2022/05/23 01:16:22;;;;;;;10.35;10.05;;;16.40;99.90;;;;;;5145540;27;20248;-83
2022/05/23 01:18:51;;;;;;;10.57;10.27;;;16.30;99.90;;;;;;5144015;27;20325;-84
2022/05/23 01:21:32;;;;;;;10.63;10.32;;;16.30;99.90;;;;;;5144218;27;20231;-84
2022/05/23 01:24:07;;;;;;;10.60;10.30;;;16.30;99.90;;;;;;5144499;27;20224;-83
2022/05/23 01:26:40;;;;;;;10.45;10.15;;;16.20;99.90;;;;;;5144104;27;20281;-84
2022/05/23 01:29:15;;;;;;;10.32;10.02;;;16.20;99.90;;;;;;5144293;27;20224;-83
2022/05/23 01:31:44;;;;;;;10.27;9.98;;;16.10;99.90;;;;;;5143447;27;20261;-84
2022/05/23 01:34:14;;;;;;;10.32;10.02;;;16.10;99.90;;;;;;5144024;27;20277;-83
2022/05/23 01:36:43;;;;;;;10.57;10.27;;;16.00;99.90;;;;;;5144507;27;20228;-83
2022/05/23 01:39:13;;;;;;;10.57;10.27;;;16.00;99.90;;;;;;5144543;27;20250;-83
2022/05/23 01:41:45;;;;;;;10.68;10.38;;;15.90;99.90;;;;;;5143401;27;20243;-85
2022/05/23 01:44:15;;;;;;;10.57;10.27;;;15.70;99.90;;;;;;5144075;27;20220;-84
2022/05/23 01:46:43;;;;;;;10.65;10.35;;;15.60;99.90;;;;;;5143974;27;20297;-83
2022/05/23 01:49:11;;;;;;;10.50;10.20;;;15.50;99.90;;;;;;5144308;27;20714;-83
2022/05/23 01:51:40;;;;;;;10.27;9.98;;;15.40;99.90;;;;;;5144006;27;20289;-83
2022/05/23 01:54:09;;;;;;;10.25;9.95;;;15.40;99.90;;;;;;5143637;27;20301;-85
2022/05/23 01:56:39;;;;;;;10.30;10.00;;;15.30;99.90;;;;;;5144071;27;20213;-83
2022/05/23 02:01:56;;;;;;;10.40;10.10;;;15.10;99.90;;;;;;5119622;27;20242;-84
2022/05/23 02:04:27;;;;;;;10.65;10.35;;;15.00;99.90;;;;;;5149674;27;20220;-84
2022/05/23 02:06:55;;;;;;;10.60;10.30;;;15.00;99.90;;;;;;5145129;27;20279;-84
2022/05/23 02:09:27;;;;;;;10.60;10.30;;;15.00;99.90;;;;;;5145335;27;20227;-84
2022/05/23 02:11:55;;;;;;;10.40;10.10;;;15.00;99.90;;;;;;5144619;27;20228;-84
2022/05/23 02:14:27;;;;;;;10.00;9.70;;;15.00;99.90;;;;;;5144181;27;20223;-85
2022/05/23 02:16:55;;;;;;;10.10;9.80;;;14.90;99.90;;;;;;5144628;27;20246;-85
2022/05/23 02:19:23;;;;;;;10.23;9.93;;;14.90;99.90;;;;;;5144393;27;20228;-84
2022/05/23 02:21:52;;;;;;;10.30;10.00;;;14.90;99.90;;;;;;5143893;27;20243;-84
2022/05/23 02:24:22;;;;;;;10.20;9.90;;;14.90;99.90;;;;;;5143994;27;20232;-84
2022/05/23 02:26:51;;;;;;;10.00;9.70;;;14.90;99.90;;;;;;5155188;27;20212;-84
2022/05/23 02:29:21;;;;;;;10.38;10.07;;;14.90;99.90;;;;;;5161353;27;20200;-84
2022/05/23 02:31:53;;;;;;;10.30;10.00;;;14.90;99.90;;;;;;5141783;27;20232;-84
2022/05/23 02:34:21;;;;;;;10.15;9.85;;;14.90;99.90;;;;;;5140974;27;20231;-84
2022/05/23 02:36:50;;;;;;;10.00;9.70;;;14.90;99.90;;;;;;5140644;27;20232;-84
2022/05/23 02:39:19;;;;;;;9.90;9.60;;;14.90;99.90;;;;;;5141161;27;20220;-84
2022/05/23 02:41:50;;;;;;;9.80;9.50;;;14.80;99.90;;;;;;5140956;27;20239;-84
2022/05/23 02:44:18;;;;;;;9.98;9.68;;;14.80;99.90;;;;;;5144024;27;20238;-84
2022/05/23 02:46:49;;;;;;;10.15;9.85;;;14.90;99.90;;;;;;5144930;27;20224;-84
2022/05/23 02:49:19;;;;;;;10.50;10.20;;;14.90;99.90;;;;;;5145380;27;20231;-84
2022/05/23 02:51:47;;;;;;;10.60;10.30;;;14.90;99.90;;;;;;5160264;27;20240;-84
2022/05/23 02:54:15;;;;;;;10.32;10.02;;;14.80;99.90;;;;;;5145729;27;20220;-85
2022/05/23 02:56:45;;;;;;;10.68;10.38;;;14.80;99.90;;;;;;5145504;27;20227;-84
2022/05/23 02:59:14;;;;;;;10.50;10.20;;;14.80;99.90;;;;;;5145950;27;20228;-84
2022/05/23 03:04:26;;;;;;;10.45;10.15;;;14.80;99.90;;;;;;5145480;27;20227;-84
2022/05/23 03:06:54;;;;;;;10.63;10.32;;;14.80;99.90;;;;;;5145947;27;20216;-85
2022/05/23 03:09:21;;;;;;;10.13;9.82;;;14.80;99.90;;;;;;5151240;27;20261;-84
2022/05/23 03:11:50;;;;;;;10.25;9.95;;;14.80;99.90;;;;;;5153639;27;20236;-85
2022/05/23 03:14:20;;;;;;;10.20;9.90;;;14.80;99.90;;;;;;5148885;27;20228;-85
2022/05/23 03:16:49;;;;;;;10.05;9.75;;;14.80;99.90;;;;;;5148170;27;20298;-84
2022/05/23 03:19:18;;;;;;;10.20;9.90;;;14.80;99.90;;;;;;5149902;27;20250;-85
2022/05/23 03:27:23;;;;;;;10.60;10.30;;;14.70;99.90;;;;;;5147163;27;20224;-84
2022/05/23 03:29:53;;;;;;;10.60;10.30;;;14.70;99.90;;;;;;5147246;27;20224;-84
2022/05/23 03:32:23;;;;;;;10.32;10.02;;;14.70;99.90;;;;;;5146887;27;20232;-85
2022/05/23 03:34:51;;;;;;;10.50;10.20;;;14.60;99.90;;;;;;5150763;27;20224;-85
2022/05/23 03:37:23;;;;;;;10.50;10.20;;;14.60;99.90;;;;;;5150085;27;20307;-84
2022/05/23 03:40:09;;;;;;;10.50;10.20;;;14.60;99.90;;;;;;5148556;27;20257;-84
2022/05/23 03:42:45;;;;;;;10.30;10.00;;;14.60;99.90;;;;;;5147882;27;20232;-85
2022/05/23 03:45:15;;;;;;;10.30;10.00;;;14.50;99.90;;;;;;5145595;27;20237;-85
2022/05/23 03:47:45;;;;;;;10.40;10.10;;;14.50;99.90;;;;;;5144798;27;20216;-85
2022/05/23 03:50:13;;;;;;;10.30;10.00;;;14.50;99.90;;;;;;5145069;27;20220;-85
2022/05/23 03:52:51;;;;;;;10.20;9.90;;;14.50;99.90;;;;;;5145242;27;20228;-84
2022/05/23 03:55:21;;;;;;;10.10;9.80;;;14.60;99.90;;;;;;5143885;27;20232;-84
2022/05/23 03:57:50;;;;;;;10.20;9.90;;;14.60;99.90;;;;;;5144984;27;20228;-84
2022/05/23 04:00:20;;;;;;;10.18;9.88;;;14.50;99.90;;;;;;5145071;27;20231;-84
2022/05/23 04:02:48;;;;;;;10.30;10.00;;;14.50;99.90;;;;;;5182244;22;20239;-84
2022/05/23 04:05:17;;;;;;;10.13;9.82;;;14.60;99.90;;;;;;5163845;27;20258;-83
2022/05/23 04:07:54;;;;;;;10.30;10.00;;;14.60;99.90;;;;;;5164388;27;20316;-84
2022/05/23 04:10:23;;;;;;;10.20;9.90;;;14.60;99.90;;;;;;5164318;27;20235;-85
2022/05/23 04:12:51;;;;;;;10.40;10.10;;;14.60;99.90;;;;;;5148754;27;20232;-84
2022/05/23 04:15:19;;;;;;;10.10;9.80;;;14.50;99.90;;;;;;5155876;27;20216;-83
2022/05/23 04:17:48;;;;;;;10.20;9.90;;;14.50;99.90;;;;;;5148563;27;20236;-82
2022/05/23 04:20:16;;;;;;;10.50;10.20;;;14.50;99.90;;;;;;5146199;27;20232;-82
2022/05/23 04:22:45;;;;;;;10.10;9.80;;;14.50;99.90;;;;;;5144547;27;20244;-82
2022/05/23 04:25:17;;;;;;;10.10;9.80;;;14.50;99.90;;;;;;5144046;27;20232;-83
2022/05/23 04:27:55;;;;;;;10.15;9.85;;;14.50;99.90;;;;;;5144841;27;20224;-82
2022/05/23 04:30:23;;;;;;;10.43;10.13;;;14.60;99.90;;;;;;5143636;27;20235;-82
2022/05/23 04:35:37;;;;;;;9.90;9.60;;;14.60;99.90;;;;;;5143683;27;20306;-82
2022/05/23 04:38:07;;;;;;;10.05;9.75;;;14.70;99.90;;;;;;5143736;27;20224;-81
2022/05/23 04:40:36;;;;;;;9.90;9.60;;;14.70;99.90;;;;;;5143382;27;20236;-82
2022/05/23 04:43:05;;;;;;;9.80;9.50;;;14.80;99.90;;;;;;5142794;27;20240;-82
2022/05/23 04:45:34;;;;;;;10.00;9.70;;;14.80;99.90;;;;;;5143078;27;20231;-82
2022/05/23 04:50:50;;;;;;;10.30;10.00;;;15.00;99.90;;;;;;5144265;27;20216;-82
2022/05/23 04:53:21;;;;;;;10.00;9.70;;;15.00;99.90;;;;;;5143803;27;20236;-81
2022/05/23 04:55:51;;;;;;;10.15;9.85;;;15.10;99.90;;;;;;5148023;27;20235;-81
2022/05/23 04:58:21;;;;;;;9.77;9.48;;;15.20;99.90;;;;;;5147300;27;20220;-82
2022/05/23 05:00:53;;;;;;;10.10;9.80;;;15.20;99.90;;;;;;5147256;27;20232;-82
2022/05/23 05:03:23;;;;;;;10.40;10.10;;;15.20;99.90;;;;;;5145746;27;20231;-82
2022/05/23 05:05:51;;;;;;;10.38;10.07;;;15.20;99.90;;;;;;5144531;27;20228;-82
2022/05/23 05:08:22;;;;;;;10.10;9.80;;;15.20;99.90;;;;;;5143979;27;20234;-82
2022/05/23 05:10:53;;;;;;;10.10;9.80;;;15.20;99.90;;;;;;5143510;27;20235;-82
2022/05/23 05:13:22;;;;;;;10.32;10.02;;;15.20;99.90;;;;;;5146561;27;20236;-82
2022/05/23 05:15:50;;;;;;;10.38;10.07;;;15.30;99.90;;;;;;5157215;27;20226;-81
2022/05/23 05:18:18;;;;;;;10.10;9.80;;;15.30;99.90;;;;;;5158127;27;20220;-82
2022/05/23 05:20:49;;;;;;;10.60;10.30;;;15.40;99.90;;;;;;5145295;27;20320;-82
2022/05/23 05:23:19;;;;;;;10.35;10.05;;;15.50;99.90;;;;;;5144935;27;20263;-83
2022/05/23 05:25:47;;;;;;;10.10;9.80;;;15.50;99.90;;;;;;5143870;27;20235;-83
2022/05/23 05:28:16;;;;;;;9.93;9.63;;;15.60;99.90;;;;;;5143379;27;20224;-82
2022/05/23 05:30:51;;;;;;;10.57;10.27;;;15.70;99.90;;;;;;5143431;27;20239;-82
2022/05/23 05:33:24;;;;;;;10.45;10.15;;;15.90;99.90;;;;;;5143679;27;20235;-82
2022/05/23 05:35:55;;;;;;;10.40;10.10;;;16.00;99.90;;;;;;5143275;27;20228;-83
2022/05/23 05:38:28;;;;;;;10.55;10.25;;;16.20;99.90;;;;;;5143881;27;20238;-83
2022/05/23 05:41:03;;;;;;;10.38;10.07;;;16.40;99.90;;;;;;5144021;27;20311;-83
2022/05/23 05:43:38;;;;;;;10.35;10.05;;;16.60;99.90;;;;;;5142425;27;20235;-83
2022/05/23 05:46:15;;;;;;;10.38;10.07;;;16.70;99.90;;;;;;5141999;27;20223;-82
2022/05/23 05:48:46;;;;;;;10.15;9.85;;;16.80;99.90;;;;;;5142407;27;20224;-82
2022/05/23 05:51:18;;;;;;;10.18;9.88;;;17.00;99.90;;;;;;5142342;27;20255;-83
2022/05/23 05:53:46;;;;;;;9.80;9.50;;;17.00;99.90;;;;;;5141399;27;20246;-83
2022/05/23 05:56:15;;;;;;;9.95;9.65;;;17.20;99.90;;;;;;5141267;27;20246;-83
2022/05/23 05:58:46;;;;;;;10.40;10.10;;;17.40;99.90;;;;;;5141783;27;20282;-82
2022/05/23 06:01:14;;;;;;;10.20;9.90;;;17.50;99.90;;;;;;5141916;27;20262;-82
2022/05/23 06:03:42;;;;;;;10.30;10.00;;;17.50;99.90;;;;;;5143134;27;20289;-83
2022/05/23 06:11:40;;;;;;;10.40;10.10;;;17.50;99.90;;;;;;5142684;27;20223;-82
2022/05/23 06:14:10;;;;;;;10.52;10.23;;;17.40;99.90;;;;;;5142856;27;20231;-82
2022/05/23 06:16:39;;;;;;;10.63;10.32;;;17.30;99.90;;;;;;5141614;27;20216;-83
2022/05/23 06:19:08;;;;;;;10.32;10.02;;;17.10;99.90;;;;;;5140530;27;20229;-82
2022/05/23 06:21:39;;;;;;;10.50;10.20;;;16.80;99.90;;;;;;5148183;27;20228;-83
2022/05/23 06:24:07;;;;;;;10.25;9.95;;;16.70;99.90;;;;;;5157016;27;20228;-83
2022/05/23 06:26:36;;;;;;;10.00;9.70;;;16.60;99.90;;;;;;5151233;27;20220;-82
2022/05/23 06:29:06;;;;;;;10.60;10.30;;;16.60;99.90;;;;;;5146207;27;20267;-83
2022/05/23 06:31:40;;;;;;;10.23;9.93;;;16.50;99.90;;;;;;5145421;27;20236;-82
2022/05/23 06:34:13;;;;;;;10.18;9.88;;;16.60;99.90;;;;;;5146949;27;20641;-83
2022/05/23 06:36:42;;;;;;;10.38;10.07;;;16.60;99.90;;;;;;5144568;27;20249;-83
2022/05/23 06:39:11;;;;;;;10.13;9.82;;;16.60;99.90;;;;;;5143852;27;20285;-83
2022/05/23 06:41:45;;;;;;;10.15;9.85;;;16.70;99.90;;;;;;5143672;27;20281;-82
2022/05/23 06:44:13;;;;;;;10.40;10.10;;;16.70;99.90;;;;;;5143409;27;20231;-83
2022/05/23 06:46:46;;;;;;;10.40;10.10;;;16.70;99.90;;;;;;5143509;27;20236;-83
2022/05/23 06:49:16;;;;;;;9.95;9.65;;;16.70;99.90;;;;;;5142565;27;20319;-83
2022/05/23 06:51:49;;;;;;;10.13;9.82;;;16.60;99.90;;;;;;5141309;27;20231;-82
2022/05/23 06:54:18;;;;;;;9.88;9.57;;;16.60;99.90;;;;;;5142261;27;20220;-82
2022/05/23 06:56:48;;;;;;;9.90;9.60;;;16.50;99.90;;;;;;5150478;27;20235;-83
2022/05/23 06:59:17;;;;;;;10.00;9.70;;;16.50;99.90;;;;;;5142902;27;20317;-83
2022/05/23 07:01:49;;;;;;;9.90;9.60;;;16.40;99.90;;;;;;5145696;27;20776;-83
2022/05/23 07:04:17;;;;;;;10.02;9.73;;;16.40;99.90;;;;;;5142395;27;20278;-83
2022/05/23 07:12:23;;;;;;;9.90;9.60;;;16.10;99.90;;;;;;5142899;27;20228;-81
2022/05/23 07:14:56;;;;;;;9.80;9.50;;;16.00;99.90;;;;;;5140909;27;20231;-82
2022/05/23 07:17:27;;;;;;;9.70;9.40;;;15.90;99.90;;;;;;5140862;27;20236;-81
2022/05/23 07:19:56;;;;;;;10.10;9.80;;;15.80;99.90;;;;;;5140321;27;20281;-82
2022/05/23 07:22:25;;;;;;;10.20;9.90;;;15.80;99.90;;;;;;5142073;27;20228;-83
2022/05/23 07:24:54;;;;;;;9.90;9.60;;;15.70;99.90;;;;;;5146190;27;20216;-82
2022/05/23 07:27:26;;;;;;;10.18;9.88;;;15.70;99.90;;;;;;5147114;27;20232;-82
2022/05/23 07:29:54;;;;;;;9.98;9.68;;;15.70;99.90;;;;;;5143122;27;20277;-82
2022/05/23 07:32:22;;;;;;;9.90;9.60;;;15.70;99.90;;;;;;5145939;27;20232;-84
2022/05/23 07:34:58;;;;;;;10.02;9.73;;;15.60;99.90;;;;;;5146190;27;20224;-84
2022/05/23 07:37:27;;;;;;;9.85;9.55;;;15.50;99.90;;;;;;5145128;27;20236;-83
2022/05/23 07:39:56;;;;;;;9.88;9.57;;;15.40;99.90;;;;;;5144226;27;20269;-83
2022/05/23 07:42:24;;;;;;;10.00;9.70;;;15.30;99.90;;;;;;5145953;27;20232;-83
2022/05/23 07:44:52;;;;;;;9.77;9.48;;;15.30;99.90;;;;;;5144761;27;20257;-81
2022/05/23 07:47:20;;;;;;;9.73;9.43;;;15.20;99.90;;;;;;5145111;27;20220;-83
2022/05/23 07:49:50;;;;;;;9.40;9.10;;;15.20;99.90;;;;;;5145857;27;20338;-81
2022/05/23 07:52:21;;;;;;;9.70;9.40;;;15.30;99.90;;;;;;5155706;27;20238;-83
2022/05/23 08:00:34;;;;;;;10.27;9.98;;;15.50;99.90;;;;;;5150870;27;20199;-83
2022/05/23 08:03:09;;;;;;;10.02;9.73;;;15.60;99.90;;;;;;5154099;27;20270;-82
2022/05/23 08:05:38;;;;;;;9.75;9.45;;;15.70;99.90;;;;;;5155124;27;20231;-83
2022/05/23 08:08:08;;;;;;;9.75;9.45;;;15.90;99.90;;;;;;5163344;27;20223;-83
2022/05/23 08:10:39;;;;;;;9.85;9.55;;;16.00;99.90;;;;;;5162722;27;20216;-83
2022/05/23 08:13:11;;;;;;;9.70;9.40;;;16.10;99.90;;;;;;5162912;27;20216;-81
2022/05/23 08:15:44;;;;;;;9.73;9.43;;;16.30;99.90;;;;;;5160509;27;20231;-83
2022/05/23 08:18:16;;;;;;;9.98;9.68;;;16.40;99.90;;;;;;5161337;27;20212;-82
2022/05/23 08:20:46;;;;;;;9.75;9.45;;;16.50;99.90;;;;;;5163218;27;20188;-82
2022/05/23 08:23:21;;;;;;;9.90;9.60;;;16.60;99.90;;;;;;5162023;27;20239;-82
2022/05/23 08:25:51;;;;;;;9.55;9.25;;;16.70;99.90;;;;;;5161698;27;20246;-82
2022/05/23 08:28:25;;;;;;;9.60;9.30;;;16.70;99.90;;;;;;5161875;27;20220;-82
2022/05/23 08:30:57;;;;;;;9.65;9.35;;;16.80;99.90;;;;;;5161554;27;20388;-82
2022/05/23 08:33:26;;;;;;;9.65;9.35;;;16.80;99.90;;;;;;5154057;27;20224;-82
2022/05/23 08:35:54;;;;;;;9.75;9.45;;;16.90;99.90;;;;;;5151027;27;20326;-82
2022/05/23 08:38:23;;;;;;;9.95;9.65;;;17.00;99.90;;;;;;5146663;27;20250;-82
2022/05/23 08:41:03;;;;;;;9.70;9.40;;;17.00;99.90;;;;;;5155872;27;20216;-82
2022/05/23 08:43:41;;;;;;;9.80;9.50;;;17.00;99.90;;;;;;5148996;27;20236;-82
2022/05/23 08:46:10;;;;;;;9.80;9.50;;;17.00;99.90;;;;;;5142106;27;20232;-81
2022/05/23 08:48:45;;;;;;;9.73;9.43;;;17.10;99.90;;;;;;5144176;27;20232;-82
2022/05/23 08:51:18;;;;;;;9.80;9.50;;;17.20;99.90;;;;;;5143469;27;20235;-82
2022/05/23 08:53:54;;;;;;;9.88;9.57;;;17.40;99.90;;;;;;5145347;27;20224;-83
2022/05/23 08:56:29;;;;;;;9.88;9.57;;;17.50;99.90;;;;;;5142538;27;20235;-82
2022/05/23 08:59:01;;;;;;;10.13;9.82;;;17.70;99.90;;;;;;5141594;27;20223;-82
2022/05/23 09:01:41;;;;;;;9.85;9.55;;;17.90;99.90;;;;;;5140698;27;20235;-83
2022/05/23 09:04:20;;;;;;;9.70;9.40;;;18.00;99.90;;;;;;5141243;27;20256;-82
2022/05/23 09:06:53;;;;;;;9.70;9.40;;;18.00;99.90;;;;;;5141693;27;20319;-82
2022/05/23 09:09:31;;;;;;;9.80;9.50;;;18.00;99.90;;;;;;5140858;27;20267;-82
2022/05/23 09:12:14;;;;;;;10.10;9.80;;;18.00;99.90;;;;;;5140907;27;20300;-82
2022/05/23 09:14:43;;;;;;;10.27;9.98;;;18.10;99.90;;;;;;5141450;27;20235;-82
2022/05/23 09:17:23;;;;;;;10.20;9.90;;;18.30;99.90;;;;;;5141586;27;20236;-82
2022/05/23 09:20:00;;;;;;;10.20;9.90;;;18.40;99.90;;;;;;5141144;27;20310;-82
2022/05/23 09:22:43;;;;;;;9.85;9.55;;;18.50;99.90;;;;;;5140781;27;20236;-82
2022/05/23 09:25:17;;;;;;;9.73;9.43;;;18.50;99.90;;;;;;5142301;27;20254;-82
2022/05/23 09:27:52;;;;;;;10.07;9.77;;;18.60;99.90;;;;;;5144202;27;20316;-81
2022/05/23 09:30:26;;;;;;;10.40;10.10;;;18.60;99.90;;;;;;5151679;27;20237;-82
2022/05/23 09:32:58;;;;;;;10.40;10.10;;;18.70;99.90;;;;;;5152024;27;20219;-82
2022/05/23 09:35:28;;;;;;;10.13;9.82;;;18.80;99.90;;;;;;5150856;27;20285;-82
2022/05/23 09:38:16;;;;;;;10.35;10.05;;;19.00;99.90;;;;;;5145494;27;20261;-82
2022/05/23 09:40:48;;;;;;;10.55;10.25;;;19.20;99.90;;;;;;5144407;27;20242;-82
2022/05/23 09:49:13;;;;;;;10.55;10.25;;;19.40;99.90;;;;;;5143259;27;20224;-81
2022/05/23 09:51:55;;;;;;;10.75;10.45;;;19.40;99.90;;;;;;5141600;27;20220;-82
2022/05/23 09:54:28;;;;;;;10.50;10.20;;;19.30;99.90;;;;;;5140492;27;20212;-82
2022/05/23 09:57:01;;;;;;;10.82;10.52;;;19.40;99.90;;;;;;5141581;27;20251;-81
2022/05/23 09:59:33;;;;;;;10.50;10.20;;;19.40;99.90;;;;;;5144726;27;20228;-82
2022/05/23 10:02:06;;;;;;;10.70;10.40;;;19.50;99.90;;;;;;5182343;22;20265;-85
2022/05/23 10:04:46;;;;;;;10.80;10.50;;;19.80;99.90;;;;;;5174910;27;20212;-83
2022/05/23 10:07:25;;;;;;;10.75;10.45;;;20.00;99.90;;;;;;5176586;27;20256;-84
2022/05/23 10:10:06;;;;;;;10.80;10.50;;;20.20;99.90;;;;;;5169191;27;20303;-84
2022/05/23 10:12:44;;;;;;;10.77;10.48;;;20.30;99.90;;;;;;5157110;27;20243;-84
2022/05/23 10:15:22;;;;;;;10.65;10.35;;;20.30;99.90;;;;;;5146020;27;20291;-84
2022/05/23 10:18:03;;;;;;;10.90;10.60;;;20.30;99.90;;;;;;5145847;27;20258;-84
2022/05/23 10:20:39;;;;;;;10.57;10.27;;;20.30;99.90;;;;;;5145730;27;21060;-84
2022/05/23 10:23:18;;;;;;;10.90;10.60;;;20.30;99.90;;;;;;5145189;27;20308;-84
2022/05/23 10:26:04;;;;;;;10.65;10.35;;;20.40;99.90;;;;;;5145160;27;20231;-84
2022/05/23 10:28:44;;;;;;;10.80;10.50;;;20.60;99.90;;;;;;5145326;27;20232;-84
2022/05/23 10:31:21;;;;;;;10.30;10.00;;;20.70;99.90;;;;;;5144988;27;20236;-84
2022/05/23 10:34:01;;;;;;;11.00;10.70;;;20.80;99.90;;;;;;5144977;27;20250;-83
2022/05/23 10:36:31;;;;;;;10.80;10.50;;;20.80;99.90;;;;;;5145143;27;20228;-84
2022/05/23 10:42:11;;;;;;;11.10;10.80;;;21.40;99.90;;;;;;5146027;27;20220;-86
2022/05/23 10:45:16;;;;;;;10.88;10.57;;;21.70;99.90;;;;;;5144858;27;20223;-84
2022/05/23 10:48:04;;;;;;;10.60;10.30;;;21.80;99.90;;;;;;5144761;27;20215;-84
2022/05/23 10:50:44;;;;;;;10.70;10.40;;;21.90;99.90;;;;;;5145323;27;20212;-84
2022/05/23 10:53:28;;;;;;;10.90;10.60;;;22.10;99.90;;;;;;5144647;27;20291;-84
2022/05/23 10:56:08;;;;;;;11.20;10.90;;;22.30;99.90;;;;;;5145290;27;20220;-84
2022/05/23 10:58:45;;;;;;;11.30;11.00;;;22.40;99.90;;;;;;5151849;27;20203;-85
2022/05/23 11:01:58;;;;;;;11.00;10.70;;;22.50;99.90;;;;;;5153484;27;20236;-85
2022/05/23 11:04:45;;;;;;;11.70;11.30;;;22.80;99.90;;;;;;5154317;27;20257;-84
2022/05/23 11:07:34;;;;;;;11.18;10.88;;;22.90;99.90;;;;;;5153755;27;20285;-85
2022/05/23 11:10:10;;;;;;;11.32;11.02;;;23.00;99.90;;;;;;5151504;27;20231;-85
2022/05/23 11:12:58;;;;;;;11.20;10.90;;;23.20;99.90;;;;;;5150417;27;20224;-84
2022/05/23 11:15:45;;;;;;;11.68;11.27;;;23.60;99.90;;;;;;5149985;27;20234;-85
2022/05/23 11:18:32;;;;;;;11.70;11.30;;;23.90;99.90;;;;;;5150027;27;20227;-85
2022/05/23 11:21:10;;;;;;;11.88;11.48;;;24.00;99.90;;;;;;5148411;27;20249;-85
2022/05/23 11:23:47;;;;;;;11.23;10.93;;;24.10;99.90;;;;;;5148413;27;20257;-85
2022/05/23 11:26:27;;;;;;;11.60;11.20;;;24.10;99.90;;;;;;5147939;27;20224;-85
2022/05/23 11:34:46;;;;;;;11.30;11.00;;;24.00;99.90;;;;;;5124080;27;20220;-86
2022/05/23 11:40:17;;;;;;;11.30;11.00;;;24.30;99.90;;;;;;5149569;27;20216;-84
2022/05/23 11:43:00;;;;;;;11.32;11.02;;;23.90;99.90;;;;;;5154003;27;20231;-84
2022/05/23 11:48:44;;;;;;;11.30;11.00;;;23.20;99.90;;;;;;5149348;27;20220;-84
2022/05/23 11:51:30;;;;;;;11.40;11.10;;;23.00;99.90;;;;;;5147626;27;20267;-85
2022/05/23 11:54:17;;;;;;;11.20;10.90;;;22.80;99.90;;;;;;5150582;27;20231;-85
2022/05/23 11:57:13;;;;;;;11.18;10.88;;;22.70;99.90;;;;;;5148300;27;20215;-83
2022/05/23 12:00:28;;;;;;;11.07;10.77;;;22.60;99.90;;;;;;5149233;27;20756;-85
2022/05/23 12:03:14;;;;;;;10.95;10.65;;;22.50;99.90;;;;;;5149645;27;20240;-84
2022/05/23 12:05:42;;;;;;;11.10;10.80;;;22.50;99.90;;;;;;5149872;27;20242;-85
2022/05/23 12:08:39;;;;;;;10.80;10.50;;;22.50;99.90;;;;;;5150392;27;20228;-84
2022/05/23 12:11:24;;;;;;;10.95;10.65;;;22.40;99.90;;;;;;5148642;27;20723;-84
2022/05/23 12:13:58;;;;;;;11.00;10.70;;;22.50;99.90;;;;;;5149057;27;20216;-84
2022/05/23 12:17:05;;;;;;;11.07;10.77;;;22.50;99.90;;;;;;5147320;27;20227;-84
2022/05/23 12:19:56;;;;;;;10.80;10.50;;;22.60;99.90;;;;;;5149155;27;20227;-84
2022/05/23 12:22:36;;;;;;;11.10;10.80;;;22.80;99.90;;;;;;5149343;27;20239;-84
2022/05/23 12:25:33;;;;;;;10.75;10.45;;;22.90;99.90;;;;;;5159569;27;20223;-83
2022/05/23 12:28:28;;;;;;;11.13;10.82;;;23.00;99.90;;;;;;5154953;27;20231;-84
2022/05/23 12:31:23;;;;;;;11.00;10.70;;;23.20;99.90;;;;;;5151563;27;20236;-84
2022/05/23 12:34:09;;;;;;;10.93;10.63;;;23.30;99.90;;;;;;5158445;27;20285;-83
2022/05/23 12:36:47;;;;;;;10.82;10.52;;;23.30;99.90;;;;;;5161472;27;20231;-84
2022/05/23 12:39:54;;;;;;;11.00;10.70;;;23.30;99.90;;;;;;5148719;27;20235;-84
2022/05/23 12:43:05;;;;;;;11.10;10.80;;;23.30;99.90;;;;;;5145999;27;20286;-83
2022/05/23 12:46:09;;;;;;;10.90;10.60;;;23.20;99.90;;;;;;5146518;27;20224;-85
2022/05/23 12:48:57;;;;;;;11.02;10.73;;;23.10;99.90;;;;;;5146838;27;20243;-85
2022/05/23 12:51:36;;;;;;;11.07;10.77;;;23.00;99.90;;;;;;5146272;27;20239;-84
2022/05/23 12:54:31;;;;;;;10.93;10.63;;;22.80;99.90;;;;;;5147243;27;20227;-84
2022/05/23 12:57:30;;;;;;;10.80;10.50;;;22.70;99.90;;;;;;5136288;27;20277;-85
2022/05/23 13:00:05;;;;;;;11.05;10.75;;;22.60;99.90;;;;;;5144140;27;20227;-84
2022/05/23 13:02:45;;;;;;;11.57;11.18;;;22.50;99.90;;;;;;5145710;27;20242;-84
2022/05/23 13:05:22;;;;;;;11.00;10.70;;;22.40;99.90;;;;;;5146007;27;20267;-85
2022/05/23 13:07:59;;;;;;;11.05;10.75;;;22.30;99.90;;;;;;5146697;27;20250;-84
2022/05/23 13:10:37;;;;;;;10.20;9.90;;;22.20;99.90;;;;;;5146434;27;20235;-85
2022/05/23 13:13:16;;;;;;;10.40;10.10;;;22.10;99.90;;;;;;5147217;27;20234;-85
2022/05/23 13:15:49;;;;;;;10.68;10.38;;;22.00;99.90;;;;;;5146778;27;20231;-85
2022/05/23 13:26:36;;;;;;;10.50;10.20;;;21.60;99.90;;;;;;5150466;27;20220;-84
2022/05/23 13:32:02;;;;;;;10.20;9.90;;;21.20;99.90;;;;;;5148196;27;20228;-85
2022/05/23 13:34:40;;;;;;;10.48;10.18;;;21.20;99.90;;;;;;5149002;27;20227;-85
2022/05/23 13:37:09;;;;;;;10.35;10.05;;;21.10;99.90;;;;;;5149356;27;20228;-85
2022/05/23 13:39:47;;;;;;;10.18;9.88;;;21.00;99.90;;;;;;5150511;27;20232;-85
2022/05/23 13:42:29;;;;;;;10.40;10.10;;;20.90;99.90;;;;;;5150196;27;20215;-85
2022/05/23 13:45:13;;;;;;;10.40;10.10;;;20.90;99.90;;;;;;5150325;27;20268;-85
2022/05/23 13:48:02;;;;;;;10.70;10.40;;;20.80;99.90;;;;;;5148997;27;20309;-85
2022/05/23 13:50:39;;;;;;;10.52;10.23;;;20.70;99.90;;;;;;5149284;27;20254;-84
2022/05/23 13:53:17;;;;;;;10.30;10.00;;;20.80;99.90;;;;;;5148912;27;20227;-85
2022/05/23 13:55:56;;;;;;;10.52;10.23;;;20.70;99.90;;;;;;5149445;27;20246;-84
2022/05/23 13:58:26;;;;;;;10.27;9.98;;;20.70;99.90;;;;;;5149353;27;20242;-85
2022/05/23 14:01:02;;;;;;;9.95;9.65;;;20.60;99.90;;;;;;5149076;27;20318;-84
2022/05/23 14:03:39;;;;;;;10.30;10.00;;;20.50;99.90;;;;;;5148387;27;20227;-85
2022/05/23 14:08:59;;;;;;;9.40;9.10;;;20.40;99.90;;;;;;5149084;27;20228;-84
2022/05/23 14:11:35;;;;;;;9.00;8.80;;;20.30;99.90;;;;;;5150916;27;20255;-83
2022/05/23 14:14:23;;;;;;;9.38;9.07;;;20.30;99.90;;;;;;5150788;27;20227;-84
2022/05/23 14:17:01;;;;;;;9.27;9.00;;;20.30;99.90;;;;;;5149775;27;20224;-84
2022/05/23 14:19:57;;;;;;;9.30;9.00;;;20.20;99.90;;;;;;5150119;27;20232;-84
2022/05/23 14:22:30;;;;;;;9.30;9.00;;;20.20;99.90;;;;;;5150821;27;20240;-85
2022/05/23 14:25:05;;;;;;;9.10;8.90;;;20.30;99.90;;;;;;5150092;27;20221;-85
2022/05/23 14:27:36;;;;;;;9.18;8.93;;;20.30;99.90;;;;;;5150664;27;20216;-84